^^
Station Historical Data
Daily Summary for February 16, 2017 Units:  Metric    English   Both
« Previous Day
Next Day »
Daily Weekly Monthly Yearly Custom
  High: Low: Average:
Temperature: 35.1 °C 17.6 °C 24.9 °C
Dew Point: 10.1 °C 2.3 °C 6.6 °C
Humidity: 55% 13% 34%
Wind Speed: 28.8km/h 0km/h 12.2km/h
Wind Gust: 35.4km/h - -
Wind- - SSW
Pressure: 1010 hPa 1006.3 hPa -
Precipitation: 0 mm    
Historical Graphs
 
 
Tabular Data for February 16, 2017
Time Temperature Dew Point Pressure Wind Wind Speed Wind Gust Humidity Rainfall Rate (Hourly) solar Conditions
00:02 23.8 °C 3.1 °C 1008.7 hPa South 13 km/h 19.3 km/h 26% 0 mm 0.0 W/m2
00:07 23.7 °C 2.5 °C 1009 hPa South 28.8 km/h 29 km/h 25% 0 mm 0.0 W/m2
00:12 23.7 °C 2.5 °C 1008.7 hPa South 22.7 km/h 24.1 km/h 25% 0 mm 0.0 W/m2
00:17 23.7 °C 2.5 °C 1008.7 hPa South 14.3 km/h 24.1 km/h 25% 0 mm 0.0 W/m2
00:27 23.6 °C 2.4 °C 1008.7 hPa South 19.5 km/h 25.7 km/h 25% 0 mm 0.0 W/m2
00:32 23.5 °C 2.3 °C 1008.7 hPa South 16.3 km/h 19.3 km/h 25% 0 mm 0.0 W/m2
00:42 23.2 °C 3.2 °C 1008.4 hPa South 13 km/h 20.9 km/h 27% 0 mm 0.0 W/m2
00:52 22.9 °C 3.4 °C 1008.4 hPa SSW 14.3 km/h 19.3 km/h 28% 0 mm 0.0 W/m2
01:08 22.3 °C 5.2 °C 1008 hPa SSW 16.3 km/h 20.9 km/h 33% 0 mm 0.0 W/m2
01:13 22.1 °C 5.5 °C 1008.4 hPa SSW 16.3 km/h 19.3 km/h 34% 0 mm 0.0 W/m2
01:18 21.9 °C 6.2 °C 1008 hPa SSW 14.3 km/h 17.7 km/h 36% 0 mm 0.0 W/m2
01:23 21.8 °C 6.8 °C 1008 hPa SSW 14.3 km/h 17.7 km/h 38% 0 mm 0.0 W/m2
01:28 21.5 °C 8 °C 1008 hPa SSW 13 km/h 16.1 km/h 42% 0 mm 0.0 W/m2
01:33 21.2 °C 8.1 °C 1008.4 hPa SSW 6.4 km/h 14.5 km/h 43% 0 mm 0.0 W/m2
01:38 20.9 °C 8.5 °C 1008.4 hPa SSW 11.1 km/h 14.5 km/h 45% 0 mm 0.0 W/m2
01:43 20.7 °C 8.3 °C 1008.4 hPa SSW 11.1 km/h 16.1 km/h 45% 0 mm 0.0 W/m2
01:53 20.5 °C 8.5 °C 1008.4 hPa SSW 11.1 km/h 14.5 km/h 46% 0 mm 0.0 W/m2
02:09 20.2 °C 8.2 °C 1008 hPa SSW 7.9 km/h 11.3 km/h 46% 0 mm 0.0 W/m2
02:14 20.3 °C 7 °C 1008 hPa SSW 11.1 km/h 14.5 km/h 42% 0 mm 0.0 W/m2
02:19 20.4 °C 7.4 °C 1007.7 hPa SSW 13 km/h 13 km/h 43% 0 mm 0.0 W/m2
02:24 20.3 °C 8 °C 1007.7 hPa SSW 11.1 km/h 11.3 km/h 45% 0 mm 0.0 W/m2
02:29 20.1 °C 7.8 °C 1007.7 hPa SSW 7.9 km/h 12.9 km/h 45% 0 mm 0.0 W/m2
02:34 20.1 °C 7.5 °C 1007.7 hPa SSW 11.1 km/h 12.9 km/h 44% 0 mm 0.0 W/m2
02:39 20.1 °C 7.5 °C 1007.7 hPa SSW 9.7 km/h 14.5 km/h 44% 0 mm 0.0 W/m2
02:49 20.1 °C 7.1 °C 1007.3 hPa SSW 13 km/h 16.1 km/h 43% 0 mm 0.0 W/m2
02:59 20.1 °C 6.8 °C 1007.7 hPa SW 7.9 km/h 17.7 km/h 42% 0 mm 0.0 W/m2
03:04 20.1 °C 7.1 °C 1007.7 hPa SW 11.1 km/h 16.1 km/h 43% 0 mm 0.0 W/m2
03:14 19.9 °C 7.6 °C 1007.7 hPa SW 13 km/h 19.3 km/h 45% 0 mm 0.0 W/m2
03:19 19.7 °C 7.4 °C 1007.7 hPa SW 11.1 km/h 16.1 km/h 45% 0 mm 0.0 W/m2
03:24 19.6 °C 7.7 °C 1007.7 hPa SW 14.3 km/h 17.7 km/h 46% 0 mm 0.0 W/m2
03:29 19.5 °C 7.9 °C 1007.7 hPa SW 11.1 km/h 17.7 km/h 47% 0 mm 0.0 W/m2
03:34 19.4 °C 7.8 °C 1007.7 hPa SW 14.3 km/h 17.7 km/h 47% 0 mm 0.0 W/m2
03:39 19.3 °C 7.7 °C 1007.7 hPa SW 14.3 km/h 19.3 km/h 47% 0 mm 0.0 W/m2
03:44 19.3 °C 8 °C 1007.7 hPa SW 16.3 km/h 19.3 km/h 48% 0 mm 0.0 W/m2
03:49 19.2 °C 7.9 °C 1008 hPa SW 9.7 km/h 14.5 km/h 48% 0 mm 0.0 W/m2
03:59 19.1 °C 8.1 °C 1008 hPa SW 9.7 km/h 16.1 km/h 49% 0 mm 0.0 W/m2
04:04 19 °C 8 °C 1008.4 hPa SW 6.4 km/h 12.9 km/h 49% 0 mm 0.0 W/m2
04:09 18.9 °C 8 °C 1008 hPa SW 7.9 km/h 11.3 km/h 49% 0 mm 0.0 W/m2
04:20 18.8 °C 7.9 °C 1008.4 hPa SW 7.9 km/h 12.9 km/h 49% 0 mm 0.0 W/m2
04:25 18.8 °C 7.9 °C 1008 hPa SW 9.7 km/h 14.5 km/h 49% 0 mm 0.0 W/m2
04:30 18.8 °C 8.2 °C 1008.4 hPa SW 13 km/h 14.5 km/h 50% 0 mm 0.0 W/m2
04:35 18.7 °C 8.1 °C 1008.4 hPa SW 13 km/h 13 km/h 50% 0 mm 0.0 W/m2
04:40 18.7 °C 8.4 °C 1008.4 hPa SW 9.7 km/h 12.9 km/h 51% 0 mm 0.0 W/m2
04:50 18.5 °C 8.2 °C 1008.4 hPa SW 7.9 km/h 9.7 km/h 51% 0 mm 0.0 W/m2
04:55 18.4 °C 8.4 °C 1008.4 hPa SW 7.9 km/h 12.9 km/h 52% 0 mm 0.0 W/m2
05:00 18.4 °C 8.1 °C 1008.4 hPa SW 9.7 km/h 12.9 km/h 51% 0 mm 0.0 W/m2
05:06 18.3 °C 8.3 °C 1008.4 hPa SW 11.1 km/h 16.1 km/h 52% 0 mm 0.0 W/m2
05:11 18.3 °C 8.3 °C 1008.4 hPa SW 11.1 km/h 14.5 km/h 52% 0 mm 0.0 W/m2
05:16 18.2 °C 8.5 °C 1008.4 hPa SW 7.9 km/h 11.3 km/h 53% 0 mm 0.0 W/m2
05:21 18.2 °C 8.5 °C 1008.7 hPa SW 4.7 km/h 8 km/h 53% 0 mm 0.0 W/m2
05:30 18.1 °C 8.6 °C 1008.7 hPa SW 6.4 km/h 9.7 km/h 54% 0 mm 0.0 W/m2
05:36 18 °C 8.6 °C 1008.7 hPa SW 6.4 km/h 9.7 km/h 54% 0 mm 0.0 W/m2
05:45 17.8 °C 8.4 °C 1008.7 hPa SW 7.9 km/h 9.7 km/h 54% 0 mm 0.0 W/m2
05:50 17.8 °C 8.4 °C 1008.7 hPa SW 7.9 km/h 9.7 km/h 54% 0 mm 0.0 W/m2
05:56 17.7 °C 8.5 °C 1008.7 hPa SW 6.4 km/h 9.7 km/h 55% 0 mm 0.0 W/m2
06:05 17.6 °C 8.5 °C 1009 hPa SW 6.4 km/h 9.7 km/h 55% 0 mm 0.0 W/m2
10:05 23.3 °C 9.3 °C 1010 hPa SW 17.7 km/h 17.7 km/h 41% 0 mm 668.0 W/m2
10:17 24.3 °C 8.7 °C 1010 hPa SW 13 km/h 17.7 km/h 37% 0 mm 712.0 W/m2
10:23 24.9 °C 8 °C 1010 hPa SW 6.4 km/h 12.9 km/h 34% 0 mm 740.0 W/m2
10:30 25.1 °C 8.1 °C 1010 hPa SW 9.7 km/h 11.3 km/h 34% 0 mm 752.0 W/m2
10:51 26.3 °C 7.3 °C 1010 hPa SW 7.9 km/h 14.5 km/h 30% 0 mm 800.0 W/m2
10:57 26.7 °C 7.7 °C 1010 hPa SW 6.4 km/h 11.3 km/h 30% 0 mm 810.0 W/m2
10:59 26.9 °C 7.4 °C 1010 hPa SW 6.4 km/h 16.1 km/h 29% 0 mm 819.0 W/m2
11:09 27.5 °C 7.4 °C 1010 hPa SW 9.7 km/h 11.3 km/h 28% 0 mm 840.0 W/m2
11:14 27.7 °C 6.5 °C 1010 hPa SW 7.9 km/h 14.5 km/h 26% 0 mm 846.0 W/m2
11:24 28 °C 6.1 °C 1010 hPa SW 9.7 km/h 12.9 km/h 25% 0 mm 860.0 W/m2
11:29 28.6 °C 6.1 °C 1010 hPa Calm   16.1 km/h 24% 0 mm 875.0 W/m2
11:44 29.1 °C 5.2 °C 1009.7 hPa Calm   16.1 km/h 22% 0 mm 898.0 W/m2
11:47 28.8 °C 5 °C 1009.7 hPa SW 6.4 km/h 14.5 km/h 22% 0 mm 891.0 W/m2
12:20 30.7 °C 3.7 °C 1009.4 hPa SSW 9.7 km/h 14.5 km/h 18% 0 mm 935.0 W/m2
12:36 30.7 °C 4.4 °C 1009 hPa SSW 11.1 km/h 11.3 km/h 19% 0 mm 942.0 W/m2
12:46 31.1 °C 4.8 °C 1009 hPa SSW 11.1 km/h 14.5 km/h 19% 0 mm 947.0 W/m2
12:59 31.5 °C 5.1 °C 1009 hPa SSW 11.1 km/h 12.9 km/h 19% 0 mm 949.0 W/m2
13:07 31.8 °C 4.6 °C 1008.7 hPa SW 14.3 km/h 16.1 km/h 18% 0 mm 951.0 W/m2
14:41 34 °C 3.7 °C 1007.7 hPa Calm     15% 0 mm 861.0 W/m2
15:03 34 °C 3.7 °C 1007.3 hPa Calm   12.9 km/h 15% 0 mm 828.0 W/m2
15:14 34.2 °C 3.9 °C 1007.3 hPa SW 4.7 km/h 12.9 km/h 15% 0 mm 807.0 W/m2
15:22 34.5 °C 3.1 °C 1007.3 hPa South 13 km/h 17.7 km/h 14% 0 mm 777.0 W/m2
15:37 34.5 °C 3.1 °C 1007 hPa South 7.9 km/h 16.1 km/h 14% 0 mm 749.0 W/m2
15:46 34.6 °C 3.2 °C 1007 hPa South 11.1 km/h 16.1 km/h 14% 0 mm 724.0 W/m2
15:53 34.6 °C 3.2 °C 1007 hPa South 7.9 km/h 16.1 km/h 14% 0 mm 694.0 W/m2
16:08 35 °C 2.5 °C 1006.7 hPa SSW 16.3 km/h 19.3 km/h 13% 0 mm 649.0 W/m2
16:23 35 °C 3.5 °C 1006.7 hPa SSW 9.7 km/h 14.5 km/h 14% 0 mm 605.0 W/m2
16:38 34.8 °C 3.4 °C 1006.7 hPa Calm   11.3 km/h 14% 0 mm 555.0 W/m2
17:00 34.9 °C 3.4 °C 1006.7 hPa SSW 11.1 km/h 19.3 km/h 14% 0 mm 503.0 W/m2
17:14 35.1 °C 3.6 °C 1006.3 hPa South 16.3 km/h 22.5 km/h 14% 0 mm 454.0 W/m2
17:28 35.1 °C 3.6 °C 1006.3 hPa South 9.7 km/h 24.1 km/h 14% 0 mm 403.0 W/m2
17:37 35 °C 3.5 °C 1006.3 hPa South 17.7 km/h 19.3 km/h 14% 0 mm 364.0 W/m2
17:46 34.7 °C 4.3 °C 1006.3 hPa South 14.3 km/h 17.7 km/h 15% 0 mm 330.0 W/m2
17:48 34.8 °C 4.3 °C 1006.3 hPa South 22.7 km/h 22.7 km/h 15% 0 mm 311.0 W/m2
18:52 32.3 °C 6.5 °C 1006.7 hPa SSW 28.8 km/h 35.4 km/h 20% 0 mm 72.0 W/m2
19:01 32.1 °C 7 °C 1006.7 hPa SSW 20.9 km/h 27.4 km/h 21% 0 mm 44.0 W/m2
19:03 31.9 °C 6.9 °C 1007 hPa SSW 22.7 km/h 30.6 km/h 21% 0 mm 30.0 W/m2
19:13 31.7 °C 7.4 °C 1007 hPa SSW 22.7 km/h 27.4 km/h 22% 0 mm 19.0 W/m2
19:24 31.2 °C 7.6 °C 1007.3 hPa SSW 17.7 km/h 29 km/h 23% 0 mm 12.0 W/m2
19:34 30.8 °C 7.9 °C 1007.3 hPa SSW 19.5 km/h 22.5 km/h 24% 0 mm 5.0 W/m2
19:45 30.3 °C 8.1 °C 1007.3 hPa SSW 22.7 km/h 24.1 km/h 25% 0 mm 0.0 W/m2
19:58 29.5 °C 8.5 °C 1007.7 hPa SSW 22.7 km/h 29 km/h 27% 0 mm 0.0 W/m2
20:07 29.1 °C 8.7 °C 1007.7 hPa SSW 22.7 km/h 25.7 km/h 28% 0 mm 0.0 W/m2
20:17 28.4 °C 8.7 °C 1007.7 hPa SSW 20.9 km/h 27.4 km/h 29% 0 mm 0.0 W/m2
20:22 28.4 °C 8.7 °C 1007.7 hPa SSW 25.9 km/h 25.9 km/h 29% 0 mm 0.0 W/m2
20:31 28.2 °C 9 °C 1008 hPa SSW 25.9 km/h 25.9 km/h 30% 0 mm 0.0 W/m2
23:50 23.4 °C 10.1 °C 1009.7 hPa SSW 19.5 km/h 22.5 km/h 43% 0 mm 0.0 W/m2
23:51 23.4 °C 10.1 °C 1009.7 hPa SSW 17.7 km/h 19.3 km/h 43% 0 mm 0.0 W/m2
Canyon Roadhouse, Fishriver Canyon, Namibia
Compliments of Weather Underground - 2.25 mb